Tarvisio

LIVO · Friuli Venezia Giulia, 意大利

使用的METAR站距离机场59 km。
罗盘
风向 的
风: 1 kt, 1 beaufort

添加一条跑道以查看侧风和逆风信息。

添置 跑道
0 ft 1.000 2.000 3.000 4.000 5.000
Cloud Cloud
FEW 5.000
METAR LOWK 270020Z AUTO VRB01KT 9999 FEW050 03/02 Q1010

METAR Tarvisio - LIVO

Tarvisio是,意大利中的未知。 该机场位于纬度46,50000和经度13,58333。 本场的ICAO机场代码为LIVO。 机场在Wien FIR中。

该航空气象观测是针对Klagenfurt Airport在2024年2月27日 01:20, 当地时间进行的。

机场观察

可变方向的风很小或没有风。

可见度为10 km 或者更多。

有几云在5.000 ft的高度。 没有观察到天花板。

温度和风寒是3 °C。 露点为2 °C,相对湿度为93%。 海平面上的气压为1010 hPa (QNH)。

白天

今天,太阳从06:49升起,在17:47降落。 这适用于Tarvisio,世界夏令时可能有所不同。 当地时间与世界标准时间之间的时差为+1 小时。 当前,没有夏令时有效。

公司介绍

我们没有关于这个机场的公司信息。

体会

到Vliegles.nl去找飞行课程,跳伞和其他飞行体验。 浏览页面,了解Tarvisio附近所有可用的活动。 你也可以使用搜索功能来寻找你所在地附近的特定飞行课程、跳伞或其他飞行体验。

乌云

5.000 ft FEW 几云

温度 & 天气

温度 3 °C
露点 2 °C
相对湿度 93%
Kp-index 2 (0-9)

白天

日出
06:46 (4:46)
中午
12:15
日落
17:44

小工具

你想在你的网站上有一个关于Tarvisio的当前航空天气(METAR)的小部件吗?

显示HTML代码
?>